Time;durP1;ratioP1;P1;durP2;ratioP2;P2;SDS_P1;SDS_P2;PMS_P1;PMS_P2;Temp;Humidity;BMP_temperature;BMP_pressure;BME280_temperature;BME280_humidity;BME280_pressure;Samples;Min_cycle;Max_cycle;Signal;HPM_P1;HPM_P2
2022/04/03 00:01:14;;;;;;;3.67;2.10;;;2.60;1.00;;;;;;5053155;28;20199;-74
2022/04/03 00:03:41;;;;;;;3.10;2.07;;;2.60;99.90;;;;;;5053090;28;20183;-74
2022/04/03 00:06:06;;;;;;;4.47;2.33;;;2.60;99.90;;;;;;5051484;28;20206;-74
2022/04/03 00:08:32;;;;;;;5.50;2.07;;;2.60;99.90;;;;;;5051503;28;20211;-73
2022/04/03 00:10:58;;;;;;;2.73;1.77;;;2.60;99.90;;;;;;5051756;28;20190;-74
2022/04/03 00:13:23;;;;;;;2.13;1.90;;;2.60;99.90;;;;;;5052723;28;20199;-75
2022/04/03 00:15:49;;;;;;;3.03;2.30;;;2.50;99.90;;;;;;5051486;28;20210;-75
2022/04/03 00:18:15;;;;;;;4.23;1.90;;;2.50;99.90;;;;;;5053028;28;20664;-75
2022/04/03 00:20:41;;;;;;;2.93;2.23;;;2.50;99.90;;;;;;5054496;28;20168;-75
2022/04/03 00:23:07;;;;;;;3.87;2.40;;;2.50;1.00;;;;;;5055484;28;20266;-75
2022/04/03 00:25:33;;;;;;;4.07;1.90;;;2.50;1.00;;;;;;5056689;28;20227;-74
2022/04/03 00:28:00;;;;;;;3.53;2.10;;;2.50;80.50;;;;;;5055325;28;20283;-75
2022/04/03 00:30:25;;;;;;;3.07;1.97;;;2.50;99.90;;;;;;5056667;28;20179;-74
2022/04/03 00:32:51;;;;;;;2.37;2.00;;;2.50;1.00;;;;;;5055267;28;20598;-74
2022/04/03 00:35:16;;;;;;;8.23;2.67;;;2.50;1.00;;;;;;5056531;28;20206;-75
2022/04/03 00:37:42;;;;;;;4.53;2.07;;;2.50;1.00;;;;;;5057023;28;20175;-75
2022/04/03 00:40:09;;;;;;;3.40;2.27;;;2.40;99.90;;;;;;5056605;28;20550;-75
2022/04/03 00:42:37;;;;;;;3.93;2.50;;;2.40;1.00;;;;;;5043513;28;20568;-75
2022/04/03 00:45:03;;;;;;;4.47;2.33;;;2.40;99.90;;;;;;5036263;28;20687;-75
2022/04/03 00:47:30;;;;;;;3.90;2.00;;;2.40;99.90;;;;;;5053319;28;20196;-74
2022/04/03 00:49:56;;;;;;;3.20;2.40;;;2.40;1.00;;;;;;5056126;28;20670;-75
2022/04/03 00:52:22;;;;;;;4.23;2.57;;;2.40;99.90;;;;;;5054729;28;20199;-75
2022/04/03 00:54:48;;;;;;;2.63;1.93;;;2.30;99.90;;;;;;5055561;28;20219;-74
2022/04/03 00:57:14;;;;;;;3.23;2.07;;;2.30;99.90;;;;;;5055743;28;20210;-74
2022/04/03 00:59:43;;;;;;;4.10;2.50;;;2.30;1.00;;;;;;5056060;28;20207;-76
2022/04/03 01:02:09;;;;;;;3.87;2.50;;;2.30;1.00;;;;;;5054463;28;20596;-76
2022/04/03 01:04:38;;;;;;;2.17;1.97;;;2.30;99.90;;;;;;5053752;28;20226;-77
2022/04/03 01:07:04;;;;;;;3.53;2.40;;;2.30;1.00;;;;;;5051467;28;20199;-75
2022/04/03 01:09:30;;;;;;;2.87;2.50;;;2.30;67.60;;;;;;5053087;28;20238;-77
2022/04/03 01:11:56;;;;;;;5.30;2.10;;;2.20;1.00;;;;;;5043004;28;20674;-74
2022/04/03 01:14:35;;;;;;;4.60;2.40;;;2.20;1.00;;;;;;5054840;28;20209;-75
2022/04/03 01:17:01;;;;;;;3.80;2.40;;;2.20;94.40;;;;;;5055168;28;20658;-75
2022/04/03 01:19:27;;;;;;;5.80;2.73;;;2.20;99.90;;;;;;5053884;28;20191;-75
2022/04/03 01:21:53;;;;;;;4.83;2.77;;;2.10;1.00;;;;;;5053923;28;20198;-75
2022/04/03 01:24:19;;;;;;;2.47;2.20;;;2.10;1.00;;;;;;5054531;28;20195;-75
2022/04/03 01:26:46;;;;;;;3.73;2.33;;;2.20;1.00;;;;;;5054712;28;20192;-74
2022/04/03 01:29:11;;;;;;;5.30;2.40;;;2.00;1.00;;;;;;5055647;28;20190;-75
2022/04/03 01:31:37;;;;;;;5.50;2.70;;;2.10;5.40;;;;;;5053744;28;20249;-75
2022/04/03 01:34:02;;;;;;;4.23;2.17;;;2.00;99.90;;;;;;5055414;28;20676;-75
2022/04/03 01:36:28;;;;;;;5.23;2.80;;;2.00;99.90;;;;;;5054733;28;20214;-75
2022/04/03 01:38:54;;;;;;;6.07;2.80;;;1.90;99.90;;;;;;5053899;28;20191;-75
2022/04/03 01:41:19;;;;;;;4.30;2.83;;;1.90;1.00;;;;;;5053575;28;20227;-76
2022/04/03 01:43:45;;;;;;;5.73;3.57;;;1.90;1.00;;;;;;5053957;28;20587;-75
2022/04/03 01:46:10;;;;;;;3.30;2.57;;;1.90;1.00;;;;;;5053665;28;20311;-76
2022/04/03 01:48:36;;;;;;;3.00;2.43;;;1.90;99.90;;;;;;5054863;28;20195;-75
2022/04/03 01:51:02;;;;;;;3.13;2.37;;;1.80;1.00;;;;;;5053259;28;20183;-78
2022/04/03 01:53:27;;;;;;;4.47;2.50;;;1.80;1.00;;;;;;5052985;28;20213;-75
2022/04/03 01:56:05;;;;;;;3.33;2.60;;;1.70;1.00;;;;;;5053814;28;20290;-75
2022/04/03 01:58:32;;;;;;;3.43;2.53;;;1.70;99.90;;;;;;5046451;28;20281;-74
2022/04/03 02:00:58;;;;;;;5.57;2.60;;;1.70;1.00;;;;;;5054356;28;20179;-75
2022/04/03 02:03:24;;;;;;;3.47;2.30;;;1.70;1.00;;;;;;5053032;28;20199;-75
2022/04/03 02:05:50;;;;;;;3.70;2.67;;;1.60;1.00;;;;;;5052581;28;20215;-77
2022/04/03 02:08:16;;;;;;;3.70;2.90;;;1.60;99.90;;;;;;5054717;28;20683;-75
2022/04/03 02:10:42;;;;;;;3.53;2.60;;;1.60;99.90;;;;;;5054809;28;20178;-75
2022/04/03 02:13:08;;;;;;;3.20;2.50;;;1.50;99.90;;;;;;5054729;28;20197;-75
2022/04/03 02:15:34;;;;;;;3.43;2.93;;;1.50;99.90;;;;;;5053061;28;20208;-74
2022/04/03 02:17:59;;;;;;;4.27;2.87;;;1.50;99.90;;;;;;5054569;28;20278;-75
2022/04/03 02:20:25;;;;;;;4.07;2.70;;;1.50;99.90;;;;;;5053412;28;20758;-75
2022/04/03 02:22:51;;;;;;;3.10;2.57;;;1.50;1.00;;;;;;5053097;28;20183;-75
2022/04/03 02:25:16;;;;;;;4.83;2.67;;;1.40;99.90;;;;;;5053787;28;20215;-75
2022/04/03 02:27:45;;;;;;;3.70;2.60;;;1.50;99.90;;;;;;5053794;28;20240;-75
2022/04/03 02:30:12;;;;;;;4.83;2.40;;;1.40;1.00;;;;;;5053703;28;20188;-75
2022/04/03 02:32:38;;;;;;;3.47;2.57;;;1.40;99.90;;;;;;5052703;28;20684;-75
2022/04/03 02:35:06;;;;;;;4.57;2.50;;;1.40;1.00;;;;;;5053006;28;20223;-76
2022/04/03 02:37:36;;;;;;;5.00;2.73;;;1.40;99.90;;;;;;5053795;28;20198;-74
2022/04/03 02:40:04;;;;;;;3.93;2.73;;;1.40;77.60;;;;;;5052330;28;20191;-75
2022/04/03 02:42:30;;;;;;;4.53;2.50;;;1.40;82.40;;;;;;5051385;28;20607;-75
2022/04/03 02:44:55;;;;;;;6.10;2.53;;;1.30;99.90;;;;;;5062708;23;20269;-94
2022/04/03 02:47:22;;;;;;;3.63;2.50;;;1.40;77.60;;;;;;5061324;28;20202;-94
2022/04/03 02:49:50;;;;;;;5.23;2.67;;;1.30;99.90;;;;;;5062056;28;20212;-96
2022/04/03 02:52:16;;;;;;;3.23;2.40;;;1.40;99.90;;;;;;5078618;28;20191;-94
2022/04/03 02:54:41;;;;;;;5.60;2.73;;;1.20;99.90;;;;;;5076901;28;20241;-94
2022/04/03 02:57:07;;;;;;;3.53;2.90;;;1.90;99.90;;;;;;5076341;28;20259;-95
2022/04/03 02:59:33;;;;;;;2.93;2.33;;;1.10;99.90;;;;;;5075639;28;20219;-95
2022/04/03 03:01:59;;;;;;;2.70;2.50;;;1.00;99.90;;;;;;5076277;28;20224;-95
2022/04/03 03:04:24;;;;;;;4.73;2.73;;;1.00;1.00;;;;;;5077526;28;20186;-94
2022/04/03 03:06:50;;;;;;;2.67;2.37;;;0.90;1.00;;;;;;5076737;28;20193;-94
2022/04/03 03:09:17;;;;;;;7.07;2.90;;;0.90;19.20;;;;;;5076665;28;20209;-93
2022/04/03 03:11:43;;;;;;;2.43;2.23;;;0.90;99.90;;;;;;5076819;28;20201;-95
2022/04/03 03:14:08;;;;;;;3.37;2.30;;;0.80;1.00;;;;;;5068959;28;20225;-94
2022/04/03 03:16:34;;;;;;;3.50;2.47;;;0.80;91.50;;;;;;5077090;28;20190;-95
2022/04/03 03:19:00;;;;;;;4.50;2.30;;;0.80;99.90;;;;;;5077656;28;20195;-95
2022/04/03 03:21:25;;;;;;;3.33;2.30;;;0.70;1.00;;;;;;5077326;28;20206;-95
2022/04/03 03:23:51;;;;;;;4.03;2.30;;;0.70;1.00;;;;;;5077845;28;20253;-94
2022/04/03 03:26:17;;;;;;;3.07;2.77;;;0.60;99.90;;;;;;5076349;28;20198;-94
2022/04/03 03:28:42;;;;;;;4.17;2.80;;;0.60;99.90;;;;;;5076190;28;20182;-94
2022/04/03 03:31:08;;;;;;;4.03;2.60;;;0.50;99.90;;;;;;5076147;28;20202;-94
2022/04/03 03:33:34;;;;;;;4.97;2.90;;;0.50;99.90;;;;;;5076584;28;20306;-94
2022/04/03 03:36:00;;;;;;;3.07;2.70;;;1.10;99.90;;;;;;5076274;28;20178;-94
2022/04/03 03:38:26;;;;;;;2.33;2.10;;;0.50;1.00;;;;;;5056126;28;20243;-94
2022/04/03 03:40:51;;;;;;;7.23;3.13;;;0.50;1.00;;;;;;5055860;28;20210;-95
2022/04/03 03:43:17;;;;;;;3.73;2.50;;;0.50;99.90;;;;;;5073177;28;20174;-95
2022/04/03 03:45:42;;;;;;;4.20;2.53;;;0.50;1.00;;;;;;5068532;28;20233;-95
2022/04/03 03:48:10;;;;;;;4.73;3.13;;;0.50;1.00;;;;;;5071008;28;20192;-94
2022/04/03 03:50:36;;;;;;;3.93;2.57;;;0.40;1.00;;;;;;5055106;28;20206;-94
2022/04/03 03:53:02;;;;;;;6.57;2.73;;;0.50;1.00;;;;;;5055599;28;20259;-95
2022/04/03 03:55:27;;;;;;;4.03;2.43;;;0.40;1.00;;;;;;5067695;28;20212;-94
2022/04/03 03:57:53;;;;;;;4.83;2.80;;;0.50;1.00;;;;;;5079412;28;20197;-94
2022/04/03 04:00:19;;;;;;;4.93;2.57;;;0.30;14.60;;;;;;5079830;28;20298;-94
2022/04/03 04:02:44;;;;;;;3.57;2.53;;;1.00;99.90;;;;;;5082178;28;20269;-93
2022/04/03 04:05:10;;;;;;;6.97;2.90;;;0.20;99.90;;;;;;5074860;28;20213;-94
2022/04/03 04:07:43;;;;;;;5.23;3.07;;;0.20;99.90;;;;;;5070436;28;20200;-94
2022/04/03 04:10:13;;;;;;;8.77;3.27;;;0.20;99.90;;;;;;5035582;28;20201;-94
2022/04/03 04:12:39;;;;;;;6.53;2.50;;;0.10;1.00;;;;;;5033945;28;20185;-94
2022/04/03 04:15:06;;;;;;;4.43;3.13;;;0.10;99.90;;;;;;5063112;28;20279;-94
2022/04/03 04:17:53;;;;;;;4.10;2.70;;;0.10;99.90;;;;;;5062221;28;20189;-94
2022/04/03 04:20:18;;;;;;;7.67;3.13;;;0.00;1.00;;;;;;5069669;28;20195;-94
2022/04/03 04:22:46;;;;;;;4.60;3.00;;;0.00;1.00;;;;;;5068170;28;20199;-94
2022/04/03 04:25:13;;;;;;;5.00;2.90;;;0.00;1.00;;;;;;5067131;28;20191;-95
2022/04/03 04:27:40;;;;;;;3.70;3.00;;;0.00;20.10;;;;;;5066110;28;20265;-94
2022/04/03 04:30:06;;;;;;;6.03;3.23;;;0.20;99.90;;;;;;5064889;28;20227;-94
2022/04/03 04:32:32;;;;;;;6.43;3.07;;;0.00;99.90;;;;;;5064275;28;20189;-94
2022/04/03 04:34:58;;;;;;;4.90;3.20;;;-0.10;99.90;;;;;;5066142;28;20215;-94
2022/04/03 04:37:24;;;;;;;4.83;3.20;;;-0.10;99.90;;;;;;5062113;28;20194;-94
2022/04/03 04:39:50;;;;;;;6.33;3.40;;;-0.10;99.90;;;;;;5069698;28;20210;-93
2022/04/03 04:42:16;;;;;;;4.87;2.70;;;0.70;1.00;;;;;;5049077;28;20260;-94
2022/04/03 04:44:42;;;;;;;6.00;3.27;;;-0.10;1.00;;;;;;5074091;28;20197;-94
2022/04/03 04:47:08;;;;;;;6.53;3.00;;;0.40;1.00;;;;;;5063797;28;20260;-93
2022/04/03 04:49:34;;;;;;;6.93;3.30;;;-0.20;1.00;;;;;;5092374;28;20220;-93
2022/04/03 04:51:59;;;;;;;4.13;3.47;;;-0.20;1.00;;;;;;5065780;28;20189;-94
2022/04/03 04:54:26;;;;;;;4.10;3.30;;;-0.30;1.00;;;;;;5067056;28;20215;-94
2022/04/03 04:56:53;;;;;;;4.20;3.27;;;-0.30;99.90;;;;;;5073650;28;20177;-94
2022/04/03 04:59:19;;;;;;;3.67;3.27;;;-0.30;99.90;;;;;;5092820;28;20208;-94
2022/04/03 05:01:44;;;;;;;6.70;3.20;;;-0.40;99.90;;;;;;5081910;28;20201;-94
2022/04/03 05:04:10;;;;;;;6.00;3.20;;;-0.40;1.00;;;;;;5074990;28;20188;-94
2022/04/03 05:06:37;;;;;;;5.17;3.77;;;-0.40;99.90;;;;;;5084348;28;20208;-94
2022/04/03 05:09:04;;;;;;;4.50;3.67;;;-0.40;1.00;;;;;;5073545;28;20203;-93
2022/04/03 05:11:30;;;;;;;5.17;3.90;;;-0.40;1.00;;;;;;5085562;28;20190;-94
2022/04/03 05:13:56;;;;;;;5.57;2.80;;;-0.40;1.00;;;;;;5067899;28;20291;-94
2022/04/03 05:16:21;;;;;;;6.30;3.53;;;-0.50;1.00;;;;;;5068253;28;20239;-94
2022/04/03 05:18:47;;;;;;;5.73;4.10;;;-0.50;99.90;;;;;;5068349;28;20659;-94
2022/04/03 05:21:13;;;;;;;8.73;3.33;;;-0.30;1.00;;;;;;5070651;28;20188;-94
2022/04/03 05:23:41;;;;;;;5.10;4.00;;;-0.60;1.00;;;;;;5079768;28;20187;-93
2022/04/03 05:26:07;;;;;;;8.37;4.07;;;-0.60;1.00;;;;;;5079960;28;20202;-93
2022/04/03 05:28:35;;;;;;;5.20;3.57;;;0.40;1.00;;;;;;5084661;28;20691;-93
2022/04/03 05:31:00;;;;;;;4.77;3.50;;;-0.50;99.90;;;;;;5077915;28;20321;-94
2022/04/03 05:33:26;;;;;;;9.50;4.23;;;-1.40;1.00;;;;;;5079613;28;20289;-93
2022/04/03 05:35:52;;;;;;;5.03;3.90;;;-0.60;1.00;;;;;;5077885;28;20184;-93
2022/04/03 05:38:17;;;;;;;8.00;4.10;;;-0.60;99.90;;;;;;5076578;28;20188;-93
2022/04/03 05:40:43;;;;;;;5.90;4.00;;;-0.60;99.90;;;;;;5079131;28;20220;-93
2022/04/03 05:43:09;;;;;;;4.50;3.87;;;-0.50;1.00;;;;;;5076670;28;20242;-93
2022/04/03 05:45:35;;;;;;;6.13;3.97;;;-0.50;1.00;;;;;;5088975;28;20206;-93
2022/04/03 05:48:02;;;;;;;4.60;3.50;;;-0.60;99.90;;;;;;5066637;28;20202;-93
2022/04/03 05:50:28;;;;;;;4.97;3.80;;;-0.60;99.90;;;;;;5068153;28;20202;-93
2022/04/03 05:52:54;;;;;;;4.70;3.70;;;-0.60;99.90;;;;;;5075451;28;20187;-93
2022/04/03 05:55:21;;;;;;;6.10;3.67;;;-0.60;22.40;;;;;;5087708;28;20230;-93
2022/04/03 05:57:48;;;;;;;4.80;3.87;;;-0.60;99.90;;;;;;5082301;28;20188;-93
2022/04/03 06:00:16;;;;;;;4.73;4.20;;;-0.60;99.90;;;;;;5082074;28;20640;-93
2022/04/03 06:02:49;;;;;;;4.90;3.73;;;-0.60;99.90;;;;;;5085346;28;20183;-94
2022/04/03 06:05:17;;;;;;;8.07;4.13;;;-0.60;1.00;;;;;;5079752;28;20191;-93
2022/04/03 06:07:43;;;;;;;5.63;4.07;;;-0.60;99.90;;;;;;5083113;28;20197;-93
2022/04/03 06:10:09;;;;;;;9.77;4.10;;;-0.60;1.00;;;;;;5089730;28;20210;-94
2022/04/03 06:12:37;;;;;;;6.00;4.03;;;-0.50;1.00;;;;;;5102036;28;20221;-94
2022/04/03 06:15:03;;;;;;;6.87;4.27;;;-0.30;1.00;;;;;;5078968;28;20191;-94
2022/04/03 06:17:29;;;;;;;5.37;3.90;;;-0.50;1.00;;;;;;5092877;28;20213;-94
2022/04/03 06:19:55;;;;;;;5.20;3.90;;;-0.50;1.00;;;;;;5093595;28;20596;-93
2022/04/03 06:22:20;;;;;;;6.37;4.40;;;-0.40;1.00;;;;;;5089949;28;20182;-94
2022/04/03 06:24:46;;;;;;;6.60;4.37;;;-0.40;1.00;;;;;;5094476;28;20195;-94
2022/04/03 06:27:11;;;;;;;6.40;4.10;;;-0.30;1.00;;;;;;5117431;28;20182;-94
2022/04/03 06:29:37;;;;;;;7.40;3.57;;;-0.40;1.00;;;;;;5097049;28;20230;-94
2022/04/03 06:32:03;;;;;;;8.60;4.20;;;0.40;1.00;;;;;;5107755;28;20207;-94
2022/04/03 06:34:29;;;;;;;6.80;4.13;;;-0.30;1.00;;;;;;5086726;28;20267;-92
2022/04/03 06:36:55;;;;;;;6.47;4.07;;;-0.20;1.00;;;;;;5088857;28;20183;-93
2022/04/03 06:39:20;;;;;;;5.33;3.70;;;-0.20;1.00;;;;;;5099826;28;20235;-94
2022/04/03 06:41:46;;;;;;;8.30;3.90;;;-0.10;1.00;;;;;;5093673;28;20208;-94
2022/04/03 06:44:12;;;;;;;5.37;4.03;;;0.10;1.00;;;;;;5079838;28;20189;-95
2022/04/03 06:46:37;;;;;;;7.00;3.43;;;0.10;1.00;;;;;;5073379;28;20272;-93
2022/04/03 06:49:03;;;;;;;7.60;4.20;;;0.80;1.00;;;;;;5061960;28;20192;-93
2022/04/03 06:51:29;;;;;;;7.97;3.97;;;0.30;1.00;;;;;;5076150;28;20173;-94
2022/04/03 06:53:54;;;;;;;5.87;4.07;;;0.30;1.00;;;;;;5076731;28;20227;-93
2022/04/03 06:56:20;;;;;;;11.83;4.13;;;0.30;1.00;;;;;;5076648;28;20191;-92
2022/04/03 06:58:45;;;;;;;5.77;4.43;;;0.40;1.00;;;;;;5076636;28;20193;-94
2022/04/03 07:01:11;;;;;;;7.80;4.27;;;0.50;1.00;;;;;;5077630;28;20177;-94
2022/04/03 07:03:37;;;;;;;6.67;4.43;;;0.50;99.90;;;;;;5077792;28;20231;-94
2022/04/03 07:06:03;;;;;;;6.40;3.70;;;1.30;1.00;;;;;;5076746;28;20180;-94
2022/04/03 07:08:28;;;;;;;6.47;4.13;;;0.60;1.00;;;;;;5077277;28;20181;-94
2022/04/03 07:10:57;;;;;;;9.50;3.53;;;0.70;1.00;;;;;;5074705;28;20202;-94
2022/04/03 07:13:23;;;;;;;6.30;3.17;;;1.40;99.90;;;;;;5093235;28;20210;-94
2022/04/03 07:15:51;;;;;;;5.07;3.23;;;0.90;99.90;;;;;;5076596;28;20249;-94
2022/04/03 07:18:17;;;;;;;4.13;2.67;;;1.30;99.90;;;;;;5078062;28;20190;-94
2022/04/03 07:20:46;;;;;;;5.70;3.07;;;1.30;18.70;;;;;;5098366;28;20198;-94
2022/04/03 07:23:12;;;;;;;6.10;2.10;;;1.40;1.00;;;;;;5074359;28;20247;-94
2022/04/03 07:25:38;;;;;;;4.13;2.20;;;1.40;99.90;;;;;;5073415;28;20245;-93
2022/04/03 07:28:04;;;;;;;2.70;2.23;;;1.50;82.10;;;;;;5076121;28;20267;-94
2022/04/03 07:30:30;;;;;;;3.17;2.07;;;1.40;1.00;;;;;;5078306;28;20207;-94
2022/04/03 07:32:56;;;;;;;3.17;2.20;;;2.10;1.00;;;;;;5077509;28;20187;-93
2022/04/03 07:35:21;;;;;;;4.60;2.00;;;1.80;99.90;;;;;;5077329;28;20230;-94
2022/04/03 07:37:49;;;;;;;5.27;2.23;;;3.00;1.00;;;;;;5082572;28;20185;-94
2022/04/03 07:40:15;;;;;;;8.40;2.57;;;2.00;1.00;;;;;;5077877;28;20812;-94
2022/04/03 07:42:41;;;;;;;9.90;2.40;;;2.20;1.00;;;;;;5077422;28;20202;-94
2022/04/03 07:48:58;;;;;;;4.97;2.50;;;2.40;99.90;;;;;;5096466;28;20192;-94
2022/04/03 07:51:23;;;;;;;6.83;2.57;;;2.50;1.00;;;;;;5091229;28;20214;-93
2022/04/03 07:53:49;;;;;;;6.77;3.20;;;2.60;99.90;;;;;;5094895;28;20209;-94
2022/04/03 08:02:29;;;;;;;10.60;5.03;;;2.90;1.00;;;;;;5062482;28;20222;-80
2022/04/03 08:04:55;;;;;;;16.23;5.40;;;3.00;1.00;;;;;;5043129;28;20198;-78
2022/04/03 08:07:20;;;;;;;20.73;4.83;;;3.10;1.00;;;;;;5063509;28;20270;-80
2022/04/03 08:09:46;;;;;;;10.17;4.20;;;3.20;99.90;;;;;;5044718;28;20283;-80
2022/04/03 08:12:12;;;;;;;8.53;4.20;;;3.30;99.90;;;;;;5054956;28;20191;-80
2022/04/03 08:14:37;;;;;;;10.50;4.27;;;3.30;99.90;;;;;;5039837;28;20219;-78
2022/04/03 08:17:03;;;;;;;9.57;4.37;;;3.40;99.90;;;;;;5062232;28;20226;-80
2022/04/03 08:19:29;;;;;;;7.27;2.80;;;3.50;27.50;;;;;;5057361;28;20184;-79
2022/04/03 08:21:55;;;;;;;7.27;2.93;;;3.60;1.00;;;;;;5060835;28;20179;-80
2022/04/03 08:24:20;;;;;;;8.77;2.90;;;3.70;1.00;;;;;;5041309;28;20188;-80
2022/04/03 08:26:46;;;;;;;9.93;3.03;;;3.80;1.00;;;;;;5043393;28;20211;-79
2022/04/03 08:29:11;;;;;;;6.70;2.93;;;3.80;1.00;;;;;;5059029;28;20221;-79
2022/04/03 08:31:37;;;;;;;6.07;2.60;;;3.90;1.00;;;;;;5045320;28;20192;-81
2022/04/03 08:34:03;;;;;;;9.33;2.80;;;4.00;1.00;;;;;;5052607;28;20242;-80
2022/04/03 08:36:28;;;;;;;6.00;2.13;;;4.00;1.00;;;;;;5045775;28;20220;-79
2022/04/03 08:38:56;;;;;;;5.30;2.13;;;4.10;1.00;;;;;;5044470;28;20202;-81
2022/04/03 08:41:21;;;;;;;6.47;2.07;;;4.20;99.90;;;;;;5044626;28;20184;-80
2022/04/03 08:43:47;;;;;;;3.10;1.70;;;4.40;99.90;;;;;;5056441;28;20618;-79
2022/04/03 08:46:13;;;;;;;5.07;1.93;;;4.50;99.90;;;;;;5080003;28;20669;-78
2022/04/03 08:48:44;;;;;;;4.40;2.20;;;4.50;99.90;;;;;;5068917;28;20214;-80
2022/04/03 08:51:10;;;;;;;3.57;1.87;;;4.60;99.90;;;;;;5048212;28;20195;-80
2022/04/03 08:53:38;;;;;;;2.97;2.20;;;4.80;99.90;;;;;;5048354;28;20274;-79
2022/04/03 08:56:05;;;;;;;4.27;2.33;;;4.80;27.30;;;;;;5060997;28;20216;-79
2022/04/03 08:58:30;;;;;;;5.53;2.07;;;4.90;97.20;;;;;;5048435;28;20188;-80
2022/04/03 09:00:56;;;;;;;3.80;2.10;;;5.00;99.90;;;;;;5048419;28;20690;-81
2022/04/03 09:03:21;;;;;;;3.63;1.87;;;5.10;73.90;;;;;;5062771;28;20176;-78
2022/04/03 09:05:47;;;;;;;2.93;1.70;;;5.10;81.60;;;;;;5058554;28;20216;-78
2022/04/03 09:08:14;;;;;;;2.83;1.80;;;5.10;60.20;;;;;;5069978;28;20206;-77
2022/04/03 09:10:41;;;;;;;3.50;2.03;;;5.10;99.90;;;;;;5047619;28;20581;-78
2022/04/03 09:13:09;;;;;;;3.20;1.60;;;5.10;99.90;;;;;;5055517;28;20189;-78
2022/04/03 09:15:34;;;;;;;4.77;1.80;;;5.10;40.80;;;;;;5058281;28;20235;-78
2022/04/03 09:18:02;;;;;;;2.57;1.70;;;5.00;99.90;;;;;;5054240;28;20183;-78
2022/04/03 09:20:33;;;;;;;2.90;1.80;;;5.00;79.00;;;;;;5057758;28;20245;-77
2022/04/03 09:23:01;;;;;;;6.90;1.60;;;5.00;99.90;;;;;;5049595;28;20192;-79
2022/04/03 09:25:41;;;;;;;3.90;1.77;;;4.90;99.90;;;;;;5052474;28;20238;-78
2022/04/03 09:28:09;;;;;;;3.00;1.40;;;5.00;99.90;;;;;;5045255;28;20194;-78
2022/04/03 09:30:42;;;;;;;3.77;1.90;;;4.90;99.90;;;;;;5042505;28;20647;-78
2022/04/03 09:33:09;;;;;;;3.03;1.70;;;4.90;98.30;;;;;;5067818;28;20199;-78
2022/04/03 09:36:03;;;;;;;2.77;1.90;;;5.00;99.90;;;;;;5059996;28;20616;-78
2022/04/03 09:38:31;;;;;;;2.83;1.73;;;4.90;99.90;;;;;;5050575;28;20192;-78
2022/04/03 09:40:59;;;;;;;4.57;1.70;;;5.00;99.90;;;;;;5057583;28;20388;-77
2022/04/03 09:43:25;;;;;;;3.00;1.70;;;5.00;99.90;;;;;;5059173;28;20677;-77
2022/04/03 09:45:56;;;;;;;5.03;2.20;;;5.00;99.90;;;;;;5072850;28;20209;-78
2022/04/03 09:48:31;;;;;;;3.53;1.77;;;5.00;99.90;;;;;;5039978;28;20290;-76
2022/04/03 09:51:23;;;;;;;2.67;1.83;;;5.00;99.90;;;;;;5062538;28;20194;-78
2022/04/03 09:53:49;;;;;;;3.20;1.70;;;5.00;99.90;;;;;;5029055;28;20215;-77
2022/04/03 09:56:31;;;;;;;2.20;1.60;;;5.00;99.90;;;;;;5059891;28;20698;-77
2022/04/03 09:58:57;;;;;;;3.00;1.50;;;5.00;96.00;;;;;;5041498;28;20290;-78
2022/04/03 10:01:26;;;;;;;2.80;1.20;;;5.00;1.00;;;;;;5040129;28;20192;-79
2022/04/03 10:03:53;;;;;;;3.70;1.60;;;5.00;1.00;;;;;;5060567;28;20203;-79
2022/04/03 10:06:19;;;;;;;3.20;1.13;;;5.00;1.00;;;;;;5038724;28;20215;-78
2022/04/03 10:08:47;;;;;;;3.33;1.47;;;4.90;1.00;;;;;;5046637;28;20191;-78
2022/04/03 10:11:14;;;;;;;2.57;1.40;;;4.90;1.00;;;;;;5046450;28;20194;-80
2022/04/03 10:13:40;;;;;;;3.10;1.70;;;5.00;1.00;;;;;;5063859;28;20215;-79
2022/04/03 10:16:05;;;;;;;3.00;1.70;;;5.00;1.00;;;;;;5046083;28;20211;-77
2022/04/03 10:18:33;;;;;;;4.00;1.63;;;5.10;10.20;;;;;;5061859;28;20686;-79
2022/04/03 10:20:59;;;;;;;2.67;1.43;;;5.00;45.10;;;;;;5059070;28;20190;-79
2022/04/03 10:23:27;;;;;;;3.70;1.50;;;5.10;24.00;;;;;;5055456;28;20191;-79
2022/04/03 10:36:04;;;;;;;2.27;1.10;;;5.20;99.90;;;;;;5066615;28;20353;-80
2022/04/03 10:38:37;;;;;;;3.27;1.10;;;5.20;16.30;;;;;;5033535;28;20272;-79
2022/04/03 10:41:05;;;;;;;2.93;1.50;;;5.20;1.00;;;;;;5059927;28;20184;-81
2022/04/03 10:43:36;;;;;;;4.53;1.20;;;5.30;1.00;;;;;;5051329;28;20614;-80
2022/04/03 10:46:02;;;;;;;3.83;0.97;;;5.40;1.00;;;;;;5062667;28;20211;-79
2022/04/03 10:48:30;;;;;;;1.73;1.30;;;5.30;1.00;;;;;;5061773;28;20180;-80
2022/04/03 10:51:02;;;;;;;4.37;1.33;;;5.30;1.00;;;;;;5041428;28;20215;-79
2022/04/03 10:53:35;;;;;;;1.83;1.30;;;5.30;1.00;;;;;;5059804;28;20184;-79
2022/04/03 10:56:08;;;;;;;5.07;1.20;;;5.40;1.00;;;;;;5066193;22;20239;-77
2022/04/03 10:58:48;;;;;;;4.37;2.67;;;5.50;1.00;;;;;;5046041;28;20660;-77
2022/04/03 11:01:27;;;;;;;5.70;2.70;;;5.70;1.00;;;;;;5054112;28;20647;-76
2022/04/03 11:04:01;;;;;;;3.10;1.93;;;5.70;1.00;;;;;;5034351;28;20196;-74
2022/04/03 11:06:32;;;;;;;5.63;2.47;;;5.90;1.00;;;;;;5020147;28;20204;-76
2022/04/03 11:09:00;;;;;;;3.90;2.13;;;5.90;1.00;;;;;;5034453;28;20270;-77
2022/04/03 11:11:36;;;;;;;4.90;2.30;;;6.10;1.00;;;;;;5056791;28;20243;-77
2022/04/03 11:14:04;;;;;;;2.90;2.00;;;6.20;1.00;;;;;;5057320;28;20207;-75
2022/04/03 11:16:53;;;;;;;2.00;1.37;;;6.30;1.00;;;;;;5053019;28;20225;-75
2022/04/03 11:19:41;;;;;;;2.33;1.30;;;6.30;1.00;;;;;;5034655;28;20179;-75
2022/04/03 11:22:09;;;;;;;6.10;1.97;;;6.40;1.00;;;;;;5048400;28;20194;-76
2022/04/03 11:24:37;;;;;;;3.77;1.90;;;6.50;1.00;;;;;;5048350;28;20245;-74
2022/04/03 11:27:04;;;;;;;3.57;1.57;;;6.60;1.00;;;;;;5055989;28;20894;-76
2022/04/03 11:29:30;;;;;;;2.70;1.70;;;6.70;1.00;;;;;;5041041;28;20615;-76
2022/04/03 11:31:57;;;;;;;2.93;2.07;;;6.70;1.00;;;;;;5039638;28;20191;-75
2022/04/03 11:34:32;;;;;;;2.03;1.20;;;6.70;1.00;;;;;;5054124;28;20199;-75
2022/04/03 11:37:00;;;;;;;4.53;1.27;;;6.70;1.00;;;;;;5050753;28;20199;-75
2022/04/03 11:39:37;;;;;;;2.10;1.40;;;6.70;1.00;;;;;;5033411;28;20191;-75
2022/04/03 11:42:09;;;;;;;2.63;1.23;;;6.80;1.00;;;;;;5034976;28;20267;-75
2022/04/03 11:44:36;;;;;;;2.93;1.27;;;7.10;1.00;;;;;;5038892;28;20281;-75
2022/04/03 11:47:03;;;;;;;4.93;1.10;;;7.10;1.00;;;;;;5052530;28;20200;-75
2022/04/03 11:49:33;;;;;;;2.93;1.27;;;7.00;1.00;;;;;;5051255;28;20191;-75
2022/04/03 11:52:09;;;;;;;2.23;1.00;;;7.20;1.00;;;;;;5051841;28;20279;-76
2022/04/03 11:54:36;;;;;;;3.20;1.30;;;7.40;1.00;;;;;;5030282;28;20210;-77
2022/04/03 11:57:08;;;;;;;2.17;1.30;;;7.50;1.00;;;;;;5073821;28;20401;-76
2022/04/03 11:59:35;;;;;;;1.60;1.00;;;7.50;1.00;;;;;;5074841;28;20173;-76
2022/04/03 12:02:09;;;;;;;1.53;1.10;;;7.60;1.00;;;;;;5057743;28;20182;-75
2022/04/03 12:04:38;;;;;;;3.10;0.97;;;7.50;1.00;;;;;;5073543;28;20183;-77
2022/04/03 12:07:04;;;;;;;3.53;1.40;;;7.50;1.00;;;;;;5062161;28;20207;-76
2022/04/03 12:09:30;;;;;;;3.10;1.47;;;7.70;1.00;;;;;;5073780;28;20221;-74
2022/04/03 12:11:56;;;;;;;5.53;1.57;;;7.80;1.00;;;;;;5072440;28;20190;-74
2022/04/03 12:14:26;;;;;;;3.77;1.30;;;7.80;1.00;;;;;;5052619;28;20701;-75
2022/04/03 12:17:00;;;;;;;2.77;1.30;;;7.90;1.00;;;;;;5084402;28;20238;-75
2022/04/03 12:19:27;;;;;;;2.83;1.63;;;8.00;1.00;;;;;;5078923;28;20197;-75
2022/04/03 12:21:57;;;;;;;3.33;1.67;;;8.00;1.00;;;;;;5057133;28;20183;-76
2022/04/03 12:24:28;;;;;;;2.53;1.47;;;8.00;1.00;;;;;;5067634;28;20209;-75
2022/04/03 12:26:58;;;;;;;1.80;1.40;;;7.80;1.00;;;;;;5077150;28;20206;-75
2022/04/03 12:29:26;;;;;;;2.37;1.20;;;7.80;1.00;;;;;;5060688;28;20183;-77
2022/04/03 12:32:02;;;;;;;3.30;1.33;;;7.70;1.00;;;;;;5057415;28;20222;-77
2022/04/03 12:34:33;;;;;;;2.43;1.50;;;7.60;1.00;;;;;;5060676;28;20311;-76
2022/04/03 12:37:00;;;;;;;2.57;1.70;;;7.50;1.00;;;;;;5058436;28;20211;-78
2022/04/03 12:39:37;;;;;;;3.00;1.60;;;7.40;99.90;;;;;;5061467;28;20289;-77
2022/04/03 12:42:20;;;;;;;4.73;1.30;;;7.30;99.90;;;;;;5077736;28;20199;-76
2022/04/03 12:44:48;;;;;;;1.90;0.93;;;7.20;99.90;;;;;;5071506;28;20197;-76
2022/04/03 12:47:22;;;;;;;1.10;0.87;;;7.10;99.90;;;;;;5053007;28;20577;-77
2022/04/03 12:50:11;;;;;;;1.37;1.00;;;7.10;1.00;;;;;;5053958;28;20230;-76
2022/04/03 12:52:38;;;;;;;1.40;0.97;;;7.00;99.90;;;;;;5044976;28;20646;-78
2022/04/03 12:55:06;;;;;;;2.37;1.13;;;6.90;1.00;;;;;;5079446;28;20253;-77
2022/04/03 13:00:17;;;;;;;1.77;1.20;;;6.90;1.00;;;;;;5074068;28;20711;-77
2022/04/03 13:02:44;;;;;;;2.60;1.10;;;6.80;1.00;;;;;;5062264;28;20199;-77
2022/04/03 13:05:14;;;;;;;1.43;1.00;;;6.80;1.00;;;;;;5081195;28;20202;-77
2022/04/03 13:07:40;;;;;;;3.80;1.10;;;6.80;1.00;;;;;;5075074;28;20188;-77
2022/04/03 13:10:06;;;;;;;3.70;1.13;;;6.70;1.00;;;;;;5065134;28;20592;-79
2022/04/03 13:12:32;;;;;;;3.03;1.57;;;6.70;1.00;;;;;;5076500;28;20689;-79
2022/04/03 13:14:59;;;;;;;1.60;1.30;;;6.60;1.00;;;;;;5093086;28;20199;-80
2022/04/03 13:17:26;;;;;;;2.27;1.20;;;6.60;1.00;;;;;;5068878;28;20238;-79
2022/04/03 13:19:52;;;;;;;2.73;1.50;;;6.60;1.00;;;;;;5066287;28;20190;-79
2022/04/03 13:22:18;;;;;;;4.40;1.37;;;6.60;1.00;;;;;;5060130;28;20604;-80
2022/04/03 13:24:43;;;;;;;1.30;1.20;;;6.50;1.00;;;;;;5073598;28;20278;-78